Time;durP1;ratioP1;P1;durP2;ratioP2;P2;SDS_P1;SDS_P2;PMS_P1;PMS_P2;Temp;Humidity;BMP_temperature;BMP_pressure;BME280_temperature;BME280_humidity;BME280_pressure;Samples;Min_cycle;Max_cycle;Signal;HPM_P1;HPM_P2
2021/08/03 00:01:51;;;;;;;4.37;3.57;;;;;;;13.57;100.00;98108.88;5074460;28;20215;-63
2021/08/03 00:04:19;;;;;;;4.77;3.30;;;;;;;13.65;100.00;98107.28;5074482;28;20221;-63
2021/08/03 00:06:48;;;;;;;4.43;3.10;;;;;;;13.78;100.00;98097.34;5074182;28;20668;-63
2021/08/03 00:09:17;;;;;;;4.00;3.30;;;;;;;13.86;100.00;98100.19;5074413;28;20219;-63
2021/08/03 00:11:44;;;;;;;4.53;3.33;;;;;;;13.94;100.00;98103.03;5074076;28;20725;-63
2021/08/03 00:14:13;;;;;;;3.70;3.07;;;;;;;13.98;100.00;98093.00;5074391;28;20555;-63
2021/08/03 00:16:42;;;;;;;4.17;3.17;;;;;;;14.02;100.00;98094.44;5073944;28;20210;-63
2021/08/03 00:19:09;;;;;;;3.97;3.10;;;;;;;14.06;100.00;98101.19;5072457;28;20230;-63
2021/08/03 00:21:37;;;;;;;4.97;3.10;;;;;;;14.10;100.00;98106.13;5074244;28;20218;-63
2021/08/03 00:24:04;;;;;;;4.27;2.80;;;;;;;14.12;100.00;98095.38;5073748;28;20779;-63
2021/08/03 00:26:31;;;;;;;3.57;2.93;;;;;;;14.14;100.00;98096.06;5074062;28;20225;-63
2021/08/03 00:28:58;;;;;;;4.40;2.77;;;;;;;14.11;100.00;98086.53;5074191;28;20207;-63
2021/08/03 00:31:27;;;;;;;3.90;3.30;;;;;;;14.15;100.00;98084.47;5074033;28;20207;-63
2021/08/03 00:33:56;;;;;;;3.80;3.37;;;;;;;14.17;100.00;98082.53;5073706;28;20585;-63
2021/08/03 00:36:26;;;;;;;3.30;3.00;;;;;;;14.17;100.00;98077.22;5073700;28;20211;-63
2021/08/03 00:38:54;;;;;;;4.70;3.27;;;;;;;14.17;100.00;98082.53;5073945;28;20249;-63
2021/08/03 00:41:24;;;;;;;3.47;3.17;;;;;;;14.19;100.00;98078.78;5073600;28;20211;-63
2021/08/03 00:43:50;;;;;;;3.93;3.00;;;;;;;14.19;100.00;98072.66;5072243;28;20211;-63
2021/08/03 00:46:17;;;;;;;3.30;3.00;;;;;;;14.19;100.00;98075.31;5073518;28;20210;-63
2021/08/03 00:48:45;;;;;;;4.37;3.53;;;;;;;14.19;100.00;98081.44;5073377;28;20692;-64
2021/08/03 00:51:11;;;;;;;4.43;3.40;;;;;;;14.17;100.00;98077.22;5073385;28;20211;-63
2021/08/03 00:53:38;;;;;;;4.03;3.10;;;;;;;14.17;100.00;98082.53;5073564;28;20211;-64
2021/08/03 00:56:05;;;;;;;5.00;3.50;;;;;;;14.16;100.00;98078.16;5073661;28;20230;-63
2021/08/03 00:58:32;;;;;;;3.43;3.13;;;;;;;14.16;100.00;98079.03;5072955;28;20611;-63
2021/08/03 01:00:59;;;;;;;4.30;3.70;;;;;;;14.17;100.00;98072.75;5073553;28;20208;-63
2021/08/03 01:03:25;;;;;;;5.37;3.30;;;;;;;14.16;100.00;98073.72;5073271;28;20215;-63
2021/08/03 01:06:02;;;;;;;4.40;3.17;;;;;;;14.17;100.00;98075.41;5073033;28;20215;-63
2021/08/03 01:08:38;;;;;;;5.83;3.67;;;;;;;14.20;100.00;98074.31;5073193;28;20210;-63
2021/08/03 01:11:08;;;;;;;3.47;3.17;;;;;;;14.23;100.00;98087.38;5071762;28;20272;-63
2021/08/03 01:13:39;;;;;;;3.47;3.10;;;;;;;14.25;100.00;98088.91;5073342;28;20238;-62
2021/08/03 01:16:12;;;;;;;3.80;3.30;;;;;;;14.28;100.00;98085.16;5073043;28;20222;-63
2021/08/03 01:18:43;;;;;;;3.50;2.97;;;;;;;14.33;100.00;98080.28;5073210;28;20245;-63
2021/08/03 01:21:29;;;;;;;3.90;3.50;;;;;;;14.34;100.00;98082.81;5073315;28;20219;-63
2021/08/03 01:24:17;;;;;;;4.73;3.30;;;;;;;14.39;100.00;98085.09;5073169;28;20214;-63
2021/08/03 01:27:02;;;;;;;4.67;3.40;;;;;;;14.42;100.00;98082.19;5072826;28;20778;-63
2021/08/03 01:29:33;;;;;;;3.60;3.30;;;;;;;14.47;100.00;98090.59;5073181;28;20210;-63
2021/08/03 01:32:03;;;;;;;3.10;2.90;;;;;;;14.49;100.00;98088.66;5072917;28;20222;-63
2021/08/03 01:34:31;;;;;;;3.43;3.10;;;;;;;14.47;100.00;98086.13;5073372;28;20256;-63
2021/08/03 01:36:58;;;;;;;4.07;3.10;;;;;;;14.51;100.00;98092.00;5071284;28;20258;-63
2021/08/03 01:39:30;;;;;;;4.00;3.47;;;;;;;14.49;100.00;98088.66;5072761;28;20234;-63
2021/08/03 01:41:59;;;;;;;3.37;3.07;;;;;;;14.47;100.00;98085.25;5073178;28;20210;-62
2021/08/03 01:44:26;;;;;;;3.20;2.90;;;;;;;14.49;100.00;98093.97;5073101;28;20218;-63
2021/08/03 01:46:57;;;;;;;4.03;3.10;;;;;;;14.50;100.00;98085.00;5073108;28;20232;-63
2021/08/03 01:49:24;;;;;;;3.47;3.13;;;;;;;14.44;100.00;98091.72;5073154;28;20578;-63
2021/08/03 01:51:52;;;;;;;3.70;2.83;;;;;;;14.35;100.00;98081.03;5073086;28;20223;-62
2021/08/03 01:54:20;;;;;;;4.37;3.20;;;;;;;14.26;100.00;98072.00;5072961;28;20606;-63
2021/08/03 01:56:47;;;;;;;4.87;3.37;;;;;;;14.19;100.00;98075.31;5072738;28;20213;-63
2021/08/03 01:59:15;;;;;;;3.03;2.83;;;;;;;14.07;100.00;98081.63;5072880;28;20238;-62
2021/08/03 02:01:42;;;;;;;3.40;3.10;;;;;;;13.97;100.00;98070.06;5073150;28;20218;-62
2021/08/03 02:04:11;;;;;;;4.00;3.40;;;;;;;13.88;100.00;98065.53;5071451;28;20226;-62
2021/08/03 02:06:38;;;;;;;5.10;3.57;;;;;;;13.79;100.00;98066.28;5072830;28;20209;-62
2021/08/03 02:09:07;;;;;;;3.27;2.97;;;;;;;13.69;100.00;98062.72;5072745;28;20207;-62
2021/08/03 02:11:37;;;;;;;3.90;3.57;;;;;;;13.59;100.00;98065.28;5072569;28;20215;-62
2021/08/03 02:14:04;;;;;;;4.10;3.37;;;;;;;13.54;100.00;98063.97;5072747;28;20210;-62
2021/08/03 02:16:32;;;;;;;3.50;3.17;;;;;;;13.49;100.00;98063.50;5073818;28;20209;-63
2021/08/03 02:18:59;;;;;;;5.53;3.37;;;;;;;13.45;100.00;98064.72;5076406;28;20238;-63
2021/08/03 02:21:27;;;;;;;3.53;3.23;;;;;;;13.42;100.00;98062.31;5076592;28;20216;-63
2021/08/03 02:23:53;;;;;;;3.63;3.20;;;;;;;13.42;100.00;98067.63;5076463;28;20233;-62
2021/08/03 02:26:20;;;;;;;4.50;2.90;;;;;;;13.37;100.00;98056.53;5076160;28;20206;-62
2021/08/03 02:28:47;;;;;;;4.33;3.27;;;;;;;13.36;100.00;98054.84;5074403;28;20225;-63
2021/08/03 02:31:19;;;;;;;3.40;2.87;;;;;;;13.31;100.00;98049.06;5076387;28;20241;-63
2021/08/03 02:33:51;;;;;;;3.37;3.03;;;;;;;13.27;100.00;98053.78;5076260;28;20231;-62
2021/08/03 02:36:21;;;;;;;3.90;3.47;;;;;;;13.28;100.00;98044.03;5076086;28;20210;-62
2021/08/03 02:38:54;;;;;;;3.40;3.10;;;;;;;13.34;100.00;98043.53;5076142;28;20295;-63
2021/08/03 02:41:21;;;;;;;4.20;3.50;;;;;;;13.39;100.00;98039.50;5076264;28;20221;-62
2021/08/03 02:43:50;;;;;;;4.20;3.10;;;;;;;13.52;100.00;98039.38;5076244;28;20207;-62
2021/08/03 02:46:21;;;;;;;5.70;3.30;;;;;;;13.58;100.00;98041.50;5075810;28;20210;-63
2021/08/03 02:49:00;;;;;;;3.80;3.27;;;;;;;13.64;100.00;98035.69;5076193;28;20217;-63
2021/08/03 02:51:28;;;;;;;4.07;3.20;;;;;;;13.74;100.00;98031.31;5075676;28;20221;-62
2021/08/03 02:53:56;;;;;;;3.20;2.90;;;;;;;13.78;100.00;98038.03;5074949;28;20578;-62
2021/08/03 02:56:25;;;;;;;4.37;2.87;;;;;;;13.82;100.00;98035.00;5075045;28;20246;-63
2021/08/03 02:58:56;;;;;;;4.10;2.67;;;;;;;13.87;100.00;98031.97;5075666;28;20235;-62
2021/08/03 03:01:27;;;;;;;2.87;2.60;;;;;;;13.91;100.00;98028.91;5075848;28;20211;-62
2021/08/03 03:03:57;;;;;;;2.40;2.20;;;;;;;13.94;100.00;98033.13;5075736;28;20214;-62
2021/08/03 03:06:26;;;;;;;2.73;2.40;;;;;;;13.98;100.00;98034.53;5075726;28;20210;-63
2021/08/03 03:08:54;;;;;;;4.77;2.67;;;;;;;14.02;100.00;98036.84;5075572;28;20226;-62
2021/08/03 03:11:28;;;;;;;4.20;2.47;;;;;;;14.01;100.00;98035.16;5075420;28;20203;-62
2021/08/03 03:13:58;;;;;;;2.90;2.40;;;;;;;14.04;100.00;98036.69;5075380;28;20677;-62
2021/08/03 03:16:27;;;;;;;2.70;2.40;;;;;;;14.04;100.00;98040.19;5075622;28;20205;-62
2021/08/03 03:18:56;;;;;;;3.83;2.00;;;;;;;14.04;100.00;98032.22;5075335;28;20248;-62
2021/08/03 03:21:24;;;;;;;3.00;2.50;;;;;;;14.00;100.00;98033.44;5073664;28;20220;-62
2021/08/03 03:23:52;;;;;;;2.90;2.37;;;;;;;14.01;100.00;98034.31;5075366;28;20210;-62
2021/08/03 03:26:20;;;;;;;2.77;2.53;;;;;;;13.99;100.00;98031.75;5074970;28;20664;-62
2021/08/03 03:28:51;;;;;;;3.33;2.40;;;;;;;13.95;100.00;98019.72;5074932;28;20210;-62
2021/08/03 03:31:20;;;;;;;2.90;2.30;;;;;;;13.89;100.00;98016.72;5075256;28;20221;-62
2021/08/03 03:33:48;;;;;;;3.93;2.40;;;;;;;13.79;100.00;98019.31;5074920;28;20235;-62
2021/08/03 03:36:15;;;;;;;2.77;2.43;;;;;;;13.71;100.00;98021.78;5074808;28;20714;-62
2021/08/03 03:38:44;;;;;;;3.00;2.33;;;;;;;13.65;100.00;98021.44;5075028;28;20225;-62
2021/08/03 03:41:11;;;;;;;3.87;2.70;;;;;;;13.58;100.00;98025.56;5075108;28;20219;-62
2021/08/03 03:43:37;;;;;;;3.00;2.50;;;;;;;13.51;100.00;98019.91;5074747;28;20214;-62
2021/08/03 03:46:09;;;;;;;2.93;2.60;;;;;;;13.46;100.00;98010.66;5073247;28;20222;-62
2021/08/03 03:48:44;;;;;;;2.67;2.40;;;;;;;13.40;100.00;98011.16;5074773;28;20214;-62
2021/08/03 03:51:16;;;;;;;2.90;2.60;;;;;;;13.37;100.00;98009.59;5074510;28;20213;-62
2021/08/03 03:53:44;;;;;;;3.00;2.70;;;;;;;13.33;100.00;98010.00;5074778;28;20218;-62
2021/08/03 03:56:13;;;;;;;3.23;2.50;;;;;;;13.28;100.00;98004.22;5074883;28;20214;-62
2021/08/03 03:58:42;;;;;;;3.03;2.80;;;;;;;13.24;100.00;98005.41;5074703;28;20213;-62
2021/08/03 04:01:15;;;;;;;3.10;2.80;;;;;;;13.22;100.00;98012.66;5074452;28;20210;-62
2021/08/03 04:03:42;;;;;;;2.97;2.53;;;;;;;13.20;100.00;98009.31;5074696;28;20206;-62
2021/08/03 04:06:09;;;;;;;3.30;3.00;;;;;;;13.20;100.00;98014.63;5074395;28;20213;-62
2021/08/03 04:08:38;;;;;;;2.90;2.60;;;;;;;13.24;100.00;98008.06;5074518;28;20216;-62
2021/08/03 04:11:04;;;;;;;4.20;3.00;;;;;;;13.29;100.00;98016.50;5074318;28;20217;-62
2021/08/03 04:13:31;;;;;;;4.43;2.77;;;;;;;13.33;100.00;98010.00;5072648;28;20210;-62
2021/08/03 04:15:58;;;;;;;3.50;2.60;;;;;;;13.34;100.00;98006.38;5074080;28;20680;-62
2021/08/03 04:18:27;;;;;;;3.30;2.77;;;;;;;13.36;100.00;98012.38;5073913;28;20211;-62
2021/08/03 04:20:53;;;;;;;3.87;3.00;;;;;;;13.39;100.00;98004.19;5073760;28;20736;-62
2021/08/03 04:23:19;;;;;;;3.90;2.90;;;;;;;13.45;100.00;98004.50;5073857;28;20212;-63
2021/08/03 04:25:46;;;;;;;3.50;3.00;;;;;;;13.54;100.00;97995.78;5074055;28;20210;-63
2021/08/03 04:28:12;;;;;;;3.63;2.70;;;;;;;13.59;100.00;98001.56;5073805;28;20686;-63
2021/08/03 04:30:39;;;;;;;3.00;2.70;;;;;;;13.68;100.00;98005.28;5074142;28;20210;-63
2021/08/03 04:33:05;;;;;;;2.70;2.50;;;;;;;13.82;100.00;98007.59;5073663;28;20210;-63
2021/08/03 04:35:33;;;;;;;2.57;2.37;;;;;;;13.90;100.00;98015.75;5073601;28;20219;-63
2021/08/03 04:38:00;;;;;;;4.23;2.03;;;;;;;13.87;100.00;98005.41;5072527;28;20210;-63
2021/08/03 04:40:26;;;;;;;3.47;2.43;;;;;;;13.81;100.00;98012.06;5072805;28;20233;-64
2021/08/03 04:42:53;;;;;;;2.73;2.40;;;;;;;13.78;100.00;98009.69;5073718;28;20237;-62
2021/08/03 04:45:20;;;;;;;2.50;2.30;;;;;;;13.75;100.00;98015.22;5073795;28;20210;-63
2021/08/03 04:47:48;;;;;;;3.07;2.40;;;;;;;13.71;100.00;98011.16;5073523;28;20690;-62
2021/08/03 04:50:16;;;;;;;2.70;2.20;;;;;;;13.69;100.00;98013.09;5073495;28;20216;-62
2021/08/03 04:52:44;;;;;;;2.63;2.43;;;;;;;13.65;100.00;98010.81;5073650;28;20225;-63
2021/08/03 04:55:12;;;;;;;2.97;2.63;;;;;;;13.67;100.00;98014.19;5073302;28;20213;-63
2021/08/03 04:57:38;;;;;;;3.10;2.60;;;;;;;13.70;100.00;98003.31;5073554;28;20217;-63
2021/08/03 05:00:07;;;;;;;3.83;3.00;;;;;;;13.73;100.00;98013.66;5073519;28;20237;-63
2021/08/03 05:02:34;;;;;;;2.93;2.50;;;;;;;13.78;100.00;98009.69;5073382;28;20224;-63
2021/08/03 05:05:02;;;;;;;3.00;2.70;;;;;;;13.86;100.00;98003.69;5071504;28;20213;-62
2021/08/03 05:07:29;;;;;;;3.00;2.70;;;;;;;13.90;100.00;98005.13;5073101;28;20249;-63
2021/08/03 05:10:00;;;;;;;4.00;2.60;;;;;;;13.97;100.00;98007.16;5073088;28;20211;-62
2021/08/03 05:12:26;;;;;;;3.10;2.70;;;;;;;14.00;100.00;98006.88;5073177;28;20210;-62
2021/08/03 05:14:58;;;;;;;5.00;2.93;;;;;;;14.06;100.00;98000.22;5073228;28;20244;-63
2021/08/03 05:17:24;;;;;;;3.70;2.87;;;;;;;14.14;100.00;97998.59;5073092;28;20676;-63
2021/08/03 05:19:52;;;;;;;3.83;3.03;;;;;;;14.21;100.00;97998.91;5072883;28;20734;-61
2021/08/03 05:22:18;;;;;;;5.57;3.13;;;;;;;14.30;100.00;97998.97;5073233;28;20581;-62
2021/08/03 05:24:45;;;;;;;3.00;2.63;;;;;;;14.41;100.00;98006.00;5073275;28;20218;-63
2021/08/03 05:27:12;;;;;;;3.83;2.70;;;;;;;14.47;100.00;98000.16;5073336;28;20582;-62
2021/08/03 05:29:39;;;;;;;3.50;3.13;;;;;;;14.54;100.00;97990.72;5072882;28;20216;-63
2021/08/03 05:32:06;;;;;;;3.10;2.63;;;;;;;14.54;100.00;97986.22;5071160;28;20210;-63
2021/08/03 05:34:33;;;;;;;3.93;3.00;;;;;;;14.60;100.00;97990.16;5073110;28;20598;-63
2021/08/03 05:37:02;;;;;;;4.70;3.00;;;;;;;14.61;100.00;97981.22;5072964;28;20214;-63
2021/08/03 05:39:30;;;;;;;3.47;2.97;;;;;;;14.65;100.00;97982.59;5072752;28;20560;-63
2021/08/03 05:41:57;;;;;;;5.13;2.97;;;;;;;14.65;100.00;97983.47;5073010;28;20217;-63
2021/08/03 05:44:25;;;;;;;3.23;2.93;;;;;;;14.70;100.00;97985.72;5072928;28;20230;-63
2021/08/03 05:46:51;;;;;;;3.67;2.60;;;;;;;14.73;100.00;97982.78;5072738;28;20226;-62
2021/08/03 05:49:18;;;;;;;4.73;3.03;;;;;;;14.79;100.00;97990.22;5073099;28;20221;-63
2021/08/03 05:51:44;;;;;;;4.27;3.27;;;;;;;14.81;100.00;97991.78;5076270;28;20559;-63
2021/08/03 05:54:11;;;;;;;4.10;3.00;;;;;;;14.87;100.00;98001.03;5077192;28;20237;-62
2021/08/03 05:56:38;;;;;;;3.47;2.87;;;;;;;14.91;100.00;97997.97;5075121;28;20668;-63
2021/08/03 05:59:05;;;;;;;3.77;2.70;;;;;;;14.91;100.00;97997.13;5077062;28;20218;-63
2021/08/03 06:01:33;;;;;;;3.27;2.97;;;;;;;14.88;100.00;97994.72;5076822;28;20247;-63
2021/08/03 06:04:00;;;;;;;3.40;2.67;;;;;;;14.87;100.00;97998.38;5076588;28;20222;-63
2021/08/03 06:06:27;;;;;;;3.80;3.17;;;;;;;14.92;100.00;97996.16;5076993;28;20211;-63
2021/08/03 06:08:56;;;;;;;3.40;2.90;;;;;;;15.02;100.00;97995.19;5076739;28;20218;-63
2021/08/03 06:11:24;;;;;;;3.27;2.93;;;;;;;15.19;100.00;97999.84;5076661;28;20210;-63
2021/08/03 06:13:53;;;;;;;4.10;3.00;;;;;;;15.44;100.00;97993.19;5076636;28;20215;-63
2021/08/03 06:16:21;;;;;;;3.50;2.90;;;;;;;15.85;100.00;98008.88;5076297;28;20245;-62
2021/08/03 06:18:50;;;;;;;6.23;3.10;;;;;;;16.43;100.00;98009.53;5076244;28;20696;-63
2021/08/03 06:21:17;;;;;;;3.20;2.67;;;;;;;16.90;100.00;98000.50;5076135;28;20231;-63
2021/08/03 06:23:45;;;;;;;3.40;3.10;;;;;;;17.23;100.00;97996.34;5074940;28;20211;-63
2021/08/03 06:26:12;;;;;;;4.67;3.27;;;;;;;17.26;98.93;97996.88;5076397;28;20211;-63
2021/08/03 06:28:39;;;;;;;3.47;2.57;;;;;;;17.17;99.38;98003.13;5076026;28;20222;-63
2021/08/03 06:31:06;;;;;;;2.93;2.33;;;;;;;17.14;99.73;98002.59;5076309;28;20208;-63
2021/08/03 06:33:33;;;;;;;4.13;2.80;;;;;;;17.12;99.80;98000.06;5076306;28;20250;-63
2021/08/03 06:36:01;;;;;;;5.03;3.10;;;;;;;17.22;97.55;98003.53;5076073;28;20207;-63
2021/08/03 06:38:27;;;;;;;4.87;2.80;;;;;;;17.39;96.91;98002.75;5076099;28;20215;-63
2021/08/03 06:41:02;;;;;;;4.60;2.83;;;;;;;17.59;95.56;97998.94;5075754;28;20231;-63
2021/08/03 06:43:30;;;;;;;3.87;2.90;;;;;;;17.98;93.30;97992.25;5076104;28;20215;-63
2021/08/03 06:46:02;;;;;;;3.60;2.60;;;;;;;18.54;88.56;97991.84;5075711;28;20214;-63
2021/08/03 06:48:32;;;;;;;3.03;2.73;;;;;;;18.71;87.38;97983.72;5074083;28;20222;-62
2021/08/03 06:51:04;;;;;;;3.43;2.40;;;;;;;18.65;86.77;97988.91;5076056;28;20210;-62
2021/08/03 06:53:31;;;;;;;3.63;2.60;;;;;;;18.54;87.19;97992.66;5076002;28;20207;-63
2021/08/03 06:55:58;;;;;;;3.87;2.60;;;;;;;18.50;87.64;97991.31;5075679;28;20207;-63
2021/08/03 06:58:31;;;;;;;3.27;2.40;;;;;;;18.56;87.26;97993.38;5075871;28;20230;-64
2021/08/03 07:00:58;;;;;;;3.40;2.40;;;;;;;18.74;86.22;97986.09;5075416;28;20712;-62
2021/08/03 07:03:26;;;;;;;2.77;2.47;;;;;;;18.95;85.01;97986.50;5074766;28;20248;-63
2021/08/03 07:05:56;;;;;;;2.60;2.30;;;;;;;19.11;84.79;97983.06;5075450;28;20688;-62
2021/08/03 07:08:25;;;;;;;3.63;2.40;;;;;;;19.20;82.83;97990.13;5075656;28;20227;-63
2021/08/03 07:10:53;;;;;;;3.57;1.83;;;;;;;19.20;82.96;97993.66;5075710;28;20219;-62
2021/08/03 07:13:20;;;;;;;3.07;2.30;;;;;;;19.11;82.26;97997.31;5075342;28;20207;-63
2021/08/03 07:15:47;;;;;;;2.30;1.80;;;;;;;19.05;83.36;97992.59;5073643;28;20207;-62
2021/08/03 07:18:19;;;;;;;2.27;2.03;;;;;;;18.98;82.36;97986.22;5075568;28;20218;-62
2021/08/03 07:20:46;;;;;;;2.90;2.00;;;;;;;18.95;82.22;97991.88;5075064;28;20239;-62
2021/08/03 07:23:12;;;;;;;3.63;2.40;;;;;;;18.95;82.00;97991.06;5075383;28;20214;-62
2021/08/03 07:25:41;;;;;;;3.57;2.23;;;;;;;19.07;82.50;98001.28;5075335;28;20249;-63
2021/08/03 07:28:07;;;;;;;4.27;2.43;;;;;;;19.26;81.15;97995.69;5075261;28;20211;-62
2021/08/03 07:30:34;;;;;;;2.53;2.20;;;;;;;19.37;80.48;97995.41;5074997;28;20214;-64
2021/08/03 07:33:01;;;;;;;3.20;2.30;;;;;;;19.45;79.44;98000.75;5074956;28;20223;-63
2021/08/03 07:35:27;;;;;;;3.53;2.17;;;;;;;19.58;80.24;97998.44;5074984;28;20207;-62
2021/08/03 07:37:54;;;;;;;2.57;1.93;;;;;;;19.69;79.64;98000.00;5075143;28;20214;-62
2021/08/03 07:40:20;;;;;;;3.00;2.00;;;;;;;19.72;79.68;98000.50;5072940;28;20228;-62
2021/08/03 07:42:48;;;;;;;2.40;2.03;;;;;;;19.73;78.63;97998.63;5074832;28;20221;-63
2021/08/03 07:45:15;;;;;;;2.67;2.07;;;;;;;19.80;79.05;98002.34;5074844;28;20583;-63
2021/08/03 07:47:41;;;;;;;2.50;2.07;;;;;;;19.92;78.37;98007.22;5074841;28;20234;-62
2021/08/03 07:50:11;;;;;;;3.57;2.00;;;;;;;20.01;77.99;98002.69;5074797;28;20214;-63
2021/08/03 07:52:38;;;;;;;4.07;2.17;;;;;;;20.14;76.83;98006.59;5074658;28;20221;-61
2021/08/03 07:55:05;;;;;;;2.60;2.00;;;;;;;20.29;76.71;98015.63;5074728;28;20214;-62
2021/08/03 07:57:31;;;;;;;4.07;2.33;;;;;;;20.32;76.41;98009.06;5074716;28;20207;-62
2021/08/03 07:59:59;;;;;;;4.23;1.90;;;;;;;20.35;74.27;98017.63;5074265;28;20215;-62
2021/08/03 08:02:26;;;;;;;2.20;1.90;;;;;;;20.33;75.57;98011.59;5074699;28;20216;-63
2021/08/03 08:04:52;;;;;;;2.37;1.70;;;;;;;20.37;75.47;98010.22;5074602;28;20211;-63
2021/08/03 08:07:19;;;;;;;3.37;1.70;;;;;;;20.47;75.28;98004.72;5072700;28;20203;-63
2021/08/03 08:09:45;;;;;;;3.53;1.87;;;;;;;20.62;74.31;98006.53;5074181;28;20218;-63
2021/08/03 08:12:11;;;;;;;2.27;1.90;;;;;;;20.65;72.81;98008.84;5074109;28;20207;-63
2021/08/03 08:14:38;;;;;;;2.60;1.93;;;;;;;20.65;72.63;98011.53;5073282;28;20213;-63
2021/08/03 08:17:06;;;;;;;2.60;1.60;;;;;;;20.77;72.85;98020.91;5074126;28;20215;-63
2021/08/03 08:19:32;;;;;;;3.20;1.93;;;;;;;20.95;72.62;98013.50;5074249;28;20207;-63
2021/08/03 08:21:59;;;;;;;4.13;1.80;;;;;;;21.16;72.88;98012.91;5074100;28;20238;-63
2021/08/03 08:24:25;;;;;;;2.27;1.73;;;;;;;21.33;71.39;98015.34;5073938;28;20215;-63
2021/08/03 08:26:52;;;;;;;2.17;1.70;;;;;;;21.47;71.59;98005.69;5054030;28;20225;-62
2021/08/03 08:29:19;;;;;;;3.30;1.60;;;;;;;21.58;71.05;98003.44;5053858;28;20555;-63
2021/08/03 08:31:46;;;;;;;2.87;1.83;;;;;;;21.53;68.19;98011.19;5053891;28;20222;-63
2021/08/03 08:34:15;;;;;;;2.10;1.63;;;;;;;21.50;69.22;97995.44;5052250;28;20232;-63
2021/08/03 08:36:41;;;;;;;3.20;1.70;;;;;;;21.48;70.35;98002.84;5053901;28;20211;-63
2021/08/03 08:39:08;;;;;;;2.37;1.73;;;;;;;21.43;69.41;97994.47;5053559;28;20208;-63
2021/08/03 08:41:36;;;;;;;2.10;1.90;;;;;;;21.31;69.25;97995.03;5053698;28;20232;-63
2021/08/03 08:44:03;;;;;;;3.33;1.93;;;;;;;21.36;71.13;98001.56;5053571;28;20211;-63
2021/08/03 08:46:32;;;;;;;3.00;1.60;;;;;;;21.48;72.38;97999.31;5053974;28;20212;-63
2021/08/03 08:49:00;;;;;;;2.93;1.83;;;;;;;21.57;71.87;98001.75;5053756;28;20212;-63
2021/08/03 08:51:28;;;;;;;2.77;1.60;;;;;;;21.66;71.18;98006.09;5053784;28;20551;-63
2021/08/03 08:53:54;;;;;;;1.83;1.70;;;;;;;21.74;71.36;98006.06;5053729;28;20223;-63
2021/08/03 08:56:21;;;;;;;1.63;1.53;;;;;;;21.80;71.69;98009.88;5053692;28;20216;-63
2021/08/03 08:58:47;;;;;;;2.70;1.70;;;;;;;21.85;71.53;98013.72;5051713;28;20203;-63
2021/08/03 09:01:14;;;;;;;2.17;1.37;;;;;;;21.94;71.39;98009.13;5053076;28;20242;-63
2021/08/03 09:03:41;;;;;;;3.23;1.60;;;;;;;22.03;70.05;98005.34;5053494;28;20212;-63
2021/08/03 09:06:07;;;;;;;1.90;1.60;;;;;;;22.15;68.45;98007.44;5053530;28;20209;-63
2021/08/03 09:08:38;;;;;;;1.57;1.23;;;;;;;22.40;67.86;98014.28;5053458;28;20211;-63
2021/08/03 09:11:10;;;;;;;2.77;1.37;;;;;;;22.63;66.04;98012.41;5053258;28;20600;-63
2021/08/03 09:13:54;;;;;;;1.83;1.40;;;;;;;22.55;59.54;98022.44;5051951;28;20699;-63
2021/08/03 09:16:21;;;;;;;1.43;1.33;;;;;;;22.35;61.18;98019.38;5050823;28;20212;-62
2021/08/03 09:18:49;;;;;;;1.80;1.37;;;;;;;22.33;61.78;98028.66;5052173;28;20223;-63
2021/08/03 09:21:25;;;;;;;2.17;1.40;;;;;;;22.14;60.98;98032.66;5052320;28;20232;-63
2021/08/03 09:23:55;;;;;;;2.47;1.40;;;;;;;21.84;63.30;98030.91;5061911;28;20595;-62
2021/08/03 09:26:39;;;;;;;2.37;1.33;;;;;;;21.24;65.07;98037.91;5069288;28;20215;-63
2021/08/03 09:29:07;;;;;;;1.50;1.40;;;;;;;20.46;67.70;98054.03;5071868;28;20687;-63
2021/08/03 09:31:36;;;;;;;2.43;1.40;;;;;;;19.74;71.61;98046.75;5072890;28;20211;-62
2021/08/03 09:34:10;;;;;;;2.33;1.27;;;;;;;18.87;77.66;98048.09;5072862;28;20239;-63
2021/08/03 09:36:46;;;;;;;1.53;1.30;;;;;;;18.23;85.86;98055.63;5072524;28;20234;-63
2021/08/03 09:39:38;;;;;;;1.70;1.50;;;;;;;17.71;92.20;98072.56;5072799;28;20227;-62
2021/08/03 09:42:07;;;;;;;3.13;1.70;;;;;;;17.06;100.00;98086.13;5072721;28;20238;-62
2021/08/03 09:44:35;;;;;;;1.87;1.70;;;;;;;16.65;100.00;98097.19;5072769;28;20210;-62
2021/08/03 09:47:02;;;;;;;4.13;1.80;;;;;;;16.36;100.00;98109.75;5072655;28;20212;-62
2021/08/03 09:49:35;;;;;;;3.10;1.90;;;;;;;16.27;100.00;98107.91;5072661;28;20312;-59
2021/08/03 09:52:07;;;;;;;2.23;1.70;;;;;;;15.85;100.00;98040.88;5071262;28;20270;-61
2021/08/03 09:54:35;;;;;;;2.37;1.47;;;;;;;15.42;100.00;98054.59;5072655;28;20211;-61
2021/08/03 09:57:04;;;;;;;2.53;1.57;;;;;;;15.50;100.00;98072.53;5072316;28;20730;-61
2021/08/03 09:59:35;;;;;;;1.97;1.70;;;;;;;15.73;100.00;98079.28;5072551;28;20234;-61
2021/08/03 10:02:02;;;;;;;1.90;1.70;;;;;;;15.85;100.00;98081.69;5072176;28;20227;-61
2021/08/03 10:04:31;;;;;;;2.30;2.10;;;;;;;16.03;100.00;98083.50;5072417;28;20210;-60
2021/08/03 10:06:58;;;;;;;2.20;2.00;;;;;;;16.19;100.00;98083.78;5072489;28;20215;-59
2021/08/03 10:09:25;;;;;;;2.30;1.90;;;;;;;16.32;100.00;98080.81;5072270;28;20222;-60
2021/08/03 10:11:53;;;;;;;3.27;2.20;;;;;;;16.33;100.00;98072.66;5072328;28;20216;-60
2021/08/03 10:14:22;;;;;;;3.57;2.03;;;;;;;16.20;100.00;98080.13;5072519;28;20218;-59
2021/08/03 10:16:48;;;;;;;3.97;2.00;;;;;;;16.16;100.00;98077.91;5070399;28;20268;-59
2021/08/03 10:19:21;;;;;;;2.20;2.00;;;;;;;16.17;100.00;98067.09;5072572;28;20221;-58
2021/08/03 10:21:54;;;;;;;2.83;2.20;;;;;;;16.15;100.00;98065.56;5072405;28;20227;-59
2021/08/03 10:24:26;;;;;;;2.43;1.90;;;;;;;16.15;100.00;98066.38;5072429;28;20218;-59
2021/08/03 10:27:11;;;;;;;2.13;1.80;;;;;;;16.34;100.00;98060.19;5052147;28;20242;-57
2021/08/03 10:29:47;;;;;;;2.03;1.70;;;;;;;16.35;100.00;98062.69;5052268;28;20570;-56
2021/08/03 10:32:36;;;;;;;2.00;1.80;;;;;;;16.46;100.00;98057.22;5052479;28;20210;-56
2021/08/03 10:35:03;;;;;;;1.50;1.40;;;;;;;16.59;100.00;98054.25;5052172;28;20240;-55
2021/08/03 10:38:07;;;;;;;1.43;1.33;;;;;;;16.66;100.00;98050.88;5053053;28;20672;-57
2021/08/03 10:41:05;;;;;;;2.07;1.27;;;;;;;17.21;100.00;98043.72;5055728;28;20253;-57
2021/08/03 10:43:49;;;;;;;1.30;1.20;;;;;;;17.64;100.00;98030.53;5053957;28;20692;-55
2021/08/03 10:46:41;;;;;;;1.90;1.40;;;;;;;17.84;100.00;98029.38;5055614;28;20261;-57
2021/08/03 10:49:08;;;;;;;1.40;1.30;;;;;;;17.73;100.00;98022.44;5055432;28;20216;-56
2021/08/03 10:51:46;;;;;;;1.73;1.23;;;;;;;17.60;100.00;98013.97;5055596;28;20208;-57
2021/08/03 10:54:17;;;;;;;1.83;1.40;;;;;;;17.80;100.00;98007.47;5055657;28;20216;-57
2021/08/03 10:57:17;;;;;;;1.57;1.37;;;;;;;18.37;100.00;98023.03;5055518;28;20212;-57
2021/08/03 10:59:45;;;;;;;1.40;1.30;;;;;;;18.69;100.00;98012.50;5055459;28;20211;-56
2021/08/03 11:02:46;;;;;;;3.00;1.50;;;;;;;18.72;100.00;98014.03;5055032;28;20327;-57
2021/08/03 11:05:33;;;;;;;1.83;1.27;;;;;;;18.87;100.00;97999.88;5055363;28;20212;-58
2021/08/03 11:08:32;;;;;;;1.40;1.27;;;;;;;19.13;100.00;98006.00;5055184;28;20252;-59
2021/08/03 11:11:05;;;;;;;1.40;1.30;;;;;;;19.36;100.00;98001.75;5045361;28;20212;-61
2021/08/03 11:13:40;;;;;;;2.37;1.40;;;;;;;19.49;100.00;97994.09;5055076;28;20254;-61
2021/08/03 11:16:13;;;;;;;2.13;1.30;;;;;;;19.48;100.00;97995.09;5054936;28;20692;-60
2021/08/03 11:18:42;;;;;;;1.47;1.30;;;;;;;19.44;100.00;97992.91;5055306;28;20212;-60
2021/08/03 11:21:15;;;;;;;2.23;1.20;;;;;;;19.34;100.00;97982.34;5055129;28;20218;-60
2021/08/03 11:24:06;;;;;;;2.07;1.30;;;;;;;19.18;100.00;97984.06;5054942;28;20673;-60
2021/08/03 11:26:36;;;;;;;2.30;1.70;;;;;;;19.06;100.00;97978.19;5069523;28;20211;-61
2021/08/03 11:29:06;;;;;;;1.80;1.70;;;;;;;19.04;100.00;97972.16;5069534;28;20223;-65
2021/08/03 11:31:51;;;;;;;1.60;1.50;;;;;;;18.99;100.00;97971.81;5071118;28;20211;-61
2021/08/03 11:34:22;;;;;;;1.87;1.40;;;;;;;18.96;100.00;97977.47;5069597;28;20243;-61
2021/08/03 11:37:00;;;;;;;1.60;1.50;;;;;;;18.97;100.00;97965.75;5069966;28;20218;-60
2021/08/03 11:39:29;;;;;;;1.80;1.70;;;;;;;19.01;100.00;97959.09;5072679;28;20219;-61